Terminal Aerodrome Forecast
Issued by NWS Sterling, VA

Home | Current Version | Previous Version | Text Only | Print | Product List | Glossary On
Versions: 1 2 3 4 5 6 7 8 9 10 11 12 13 14 15 16 17 18 19 20 21 22
000
FTUS41 KLWX 252102 AAA
TAFBWI
TAF AMD
KBWI 252102Z 2521/2624 25004KT P6SM OVC090
     FM260000 VRB04KT P6SM -RA OVC090
     FM260200 VRB04KT P6SM -RA OVC050
     FM260500 VRB04KT P6SM -RA SCT015 OVC025
     FM260700 VRB04KT P6SM OVC025
     FM260900 VRB03KT P6SM OVC050
     FM261900 35006KT P6SM SCT250=

USA.gov is the U.S. government's official web portal to all federal, state and local government web resources and services.